createdAt,value
2022-09-09T00:00:13.576Z,17.16
2022-09-09T00:02:44.870Z,17.04
2022-09-09T00:05:23.897Z,16.97
2022-09-09T00:07:54.377Z,16.72
2022-09-09T00:10:29.680Z,17.37
2022-09-09T00:13:03.485Z,17.52
2022-09-09T00:15:39.355Z,17.58
2022-09-09T00:18:19.254Z,17.32
2022-09-09T00:20:52.754Z,17.40
2022-09-09T00:23:26.883Z,17.60
2022-09-09T00:26:04.532Z,17.41
2022-09-09T00:28:35.411Z,17.27
2022-09-09T00:31:13.999Z,17.33
2022-09-09T00:33:43.543Z,17.28
2022-09-09T00:36:16.682Z,17.23
2022-09-09T00:38:47.796Z,17.23
2022-09-09T00:41:22.330Z,17.67
2022-09-09T00:43:58.605Z,17.47
2022-09-09T00:46:46.596Z,17.41
2022-09-09T00:49:24.406Z,17.42
2022-09-09T00:52:03.259Z,17.66
2022-09-09T00:54:40.078Z,17.75
2022-09-09T00:57:20.113Z,17.10
2022-09-09T00:59:51.260Z,17.62
2022-09-09T01:02:30.149Z,17.51
2022-09-09T01:05:04.194Z,17.17
2022-09-09T01:07:33.038Z,16.92
2022-09-09T01:10:02.804Z,17.22
2022-09-09T01:12:39.992Z,17.56
2022-09-09T01:15:12.791Z,17.16
2022-09-09T01:17:53.793Z,17.60
2022-09-09T01:20:26.468Z,17.63
2022-09-09T01:23:10.780Z,17.68
2022-09-09T01:26:26.106Z,17.96
2022-09-09T01:28:54.829Z,18.00
2022-09-09T01:31:27.398Z,17.80
2022-09-09T01:33:55.094Z,17.52
2022-09-09T01:36:30.201Z,18.07
2022-09-09T01:38:58.134Z,17.83
2022-09-09T01:41:27.313Z,18.11
2022-09-09T01:43:56.848Z,17.91
2022-09-09T01:46:25.303Z,17.57
2022-09-09T01:48:54.296Z,17.61
2022-09-09T01:51:22.169Z,17.92
2022-09-09T01:53:49.934Z,18.08
2022-09-09T01:56:29.267Z,18.07
2022-09-09T01:59:10.298Z,18.36
2022-09-09T02:01:51.823Z,18.36
2022-09-09T02:04:32.945Z,18.23
2022-09-09T02:07:02.511Z,17.79
2022-09-09T02:09:32.544Z,18.03
2022-09-09T02:12:08.170Z,17.91
2022-09-09T02:14:42.877Z,17.84
2022-09-09T02:17:12.725Z,17.88
2022-09-09T02:19:47.149Z,17.73
2022-09-09T02:22:15.401Z,17.84
2022-09-09T02:24:43.118Z,17.87
2022-09-09T02:27:12.978Z,17.98
2022-09-09T02:29:45.443Z,18.04
2022-09-09T02:32:17.673Z,18.02
2022-09-09T02:34:49.946Z,17.64
2022-09-09T02:37:20.491Z,17.82
2022-09-09T02:39:48.620Z,17.81
2022-09-09T02:42:16.799Z,17.79
2022-09-09T02:44:47.132Z,17.70
2022-09-09T02:47:27.017Z,17.92
2022-09-09T02:50:05.321Z,17.45
2022-09-09T02:52:41.216Z,17.75
2022-09-09T02:55:14.242Z,17.76
2022-09-09T02:57:44.048Z,18.00
2022-09-09T03:00:14.378Z,18.07
2022-09-09T03:02:43.189Z,18.09
2022-09-09T03:05:11.027Z,18.51
2022-09-09T03:07:40.353Z,18.24
2022-09-09T03:10:09.053Z,18.25
2022-09-09T03:12:36.769Z,18.55
2022-09-09T03:15:05.061Z,18.01
2022-09-09T03:17:34.144Z,17.72
2022-09-09T03:20:02.554Z,17.88
2022-09-09T03:22:30.290Z,17.96
2022-09-09T03:24:58.001Z,18.06
2022-09-09T03:27:25.876Z,18.19
2022-09-09T03:29:53.854Z,17.94
2022-09-09T03:32:23.410Z,17.78
2022-09-09T03:34:53.123Z,17.94
2022-09-09T03:37:21.024Z,18.38
2022-09-09T03:39:49.007Z,17.50
2022-09-09T03:42:19.676Z,17.62
2022-09-09T03:44:51.093Z,17.74
2022-09-09T03:47:20.231Z,17.90
2022-09-09T03:49:48.148Z,17.99
2022-09-09T03:52:21.658Z,17.61
2022-09-09T03:54:51.217Z,17.55
2022-09-09T03:57:18.935Z,17.60
2022-09-09T03:59:46.646Z,17.93
2022-09-09T04:02:14.476Z,17.99
2022-09-09T04:04:42.218Z,17.48
2022-09-09T04:07:09.973Z,17.31
2022-09-09T04:09:39.040Z,17.59
2022-09-09T04:12:07.638Z,17.37
2022-09-09T04:14:35.541Z,17.43
2022-09-09T04:17:07.086Z,17.81
2022-09-09T04:19:34.936Z,17.64
2022-09-09T04:22:02.672Z,17.74
2022-09-09T04:24:30.357Z,17.65
2022-09-09T04:26:59.468Z,17.54
2022-09-09T04:29:27.243Z,17.49
2022-09-09T04:31:55.072Z,17.71
2022-09-09T04:34:22.897Z,17.37
2022-09-09T04:36:50.598Z,17.16
2022-09-09T04:39:18.276Z,17.12
2022-09-09T04:41:46.400Z,17.46
2022-09-09T04:44:15.498Z,17.89
2022-09-09T04:46:46.088Z,18.09
2022-09-09T04:49:15.341Z,18.06
2022-09-09T04:51:43.924Z,17.47
2022-09-09T04:54:12.703Z,17.30
2022-09-09T04:56:42.623Z,17.75
2022-09-09T04:59:10.853Z,17.85
2022-09-09T05:01:39.958Z,17.77
2022-09-09T05:04:07.700Z,17.43
2022-09-09T05:06:37.124Z,17.66
2022-09-09T05:09:05.004Z,17.67
2022-09-09T05:11:37.845Z,17.67
2022-09-09T05:14:06.023Z,17.59
2022-09-09T05:16:34.467Z,17.59
2022-09-09T05:19:04.321Z,17.69
2022-09-09T05:21:32.862Z,18.06
2022-09-09T05:24:01.801Z,17.62
2022-09-09T05:26:30.661Z,17.65
2022-09-09T05:29:00.014Z,17.32
2022-09-09T05:31:29.353Z,17.77
2022-09-09T05:33:57.119Z,17.31
2022-09-09T05:36:26.199Z,17.52
2022-09-09T05:38:54.792Z,17.95
2022-09-09T05:41:24.015Z,17.24
2022-09-09T05:43:51.839Z,17.91
2022-09-09T05:46:21.666Z,18.00
2022-09-09T05:48:51.659Z,17.92
2022-09-09T05:51:22.775Z,17.30
2022-09-09T05:53:52.780Z,17.79
2022-09-09T05:56:22.839Z,17.93
2022-09-09T05:58:51.411Z,18.33
2022-09-09T06:01:20.372Z,18.36
2022-09-09T06:03:49.429Z,18.28
2022-09-09T06:06:19.211Z,18.41
2022-09-09T06:08:47.282Z,18.10
2022-09-09T06:11:18.569Z,18.53
2022-09-09T06:13:46.849Z,18.68
2022-09-09T06:16:16.947Z,17.94
2022-09-09T06:18:45.297Z,18.37
2022-09-09T06:21:17.769Z,18.41
2022-09-09T06:23:46.417Z,17.99
2022-09-09T06:26:18.324Z,18.10
2022-09-09T06:28:47.089Z,18.19
2022-09-09T06:31:18.394Z,18.65
2022-09-09T06:33:46.247Z,18.49
2022-09-09T06:36:15.884Z,18.72
2022-09-09T06:38:44.111Z,18.55
2022-09-09T06:41:13.305Z,18.18
2022-09-09T06:43:42.434Z,17.81
2022-09-09T06:46:14.204Z,17.98
2022-09-09T06:48:42.747Z,18.31
2022-09-09T06:51:12.484Z,18.36
2022-09-09T06:53:43.039Z,18.38
2022-09-09T06:56:22.770Z,19.16
2022-09-09T06:58:52.927Z,18.76
2022-09-09T07:01:22.241Z,18.89
2022-09-09T07:03:52.129Z,19.20
2022-09-09T07:06:21.668Z,18.86
2022-09-09T07:08:56.539Z,18.10
2022-09-09T07:11:27.904Z,18.51
2022-09-09T07:13:58.670Z,18.34
2022-09-09T07:16:26.955Z,18.47
2022-09-09T07:18:58.769Z,18.05
2022-09-09T07:21:27.919Z,18.20
2022-09-09T07:23:56.289Z,18.57
2022-09-09T07:26:26.195Z,18.57
2022-09-09T07:28:54.530Z,19.10
2022-09-09T07:31:26.110Z,18.62
2022-09-09T07:33:54.374Z,18.50
2022-09-09T07:36:23.769Z,18.51
2022-09-09T07:38:54.104Z,17.95
2022-09-09T07:41:25.725Z,18.12
2022-09-09T07:43:54.876Z,18.87
2022-09-09T07:46:27.614Z,18.27
2022-09-09T07:48:57.210Z,18.19
2022-09-09T07:51:27.526Z,18.93
2022-09-09T07:53:58.503Z,18.71
2022-09-09T07:56:27.806Z,19.02
2022-09-09T07:58:57.634Z,18.86
2022-09-09T08:01:29.113Z,19.02
2022-09-09T08:04:00.151Z,18.26
2022-09-09T08:06:28.869Z,18.18
2022-09-09T08:08:56.913Z,17.99
2022-09-09T08:11:26.929Z,18.13
2022-09-09T08:13:58.989Z,18.04
2022-09-09T08:16:33.007Z,18.18
2022-09-09T08:19:01.229Z,18.27
2022-09-09T08:21:31.466Z,18.61
2022-09-09T08:24:01.022Z,18.83
2022-09-09T08:26:30.593Z,18.66
2022-09-09T08:29:00.392Z,18.64
2022-09-09T08:31:31.228Z,18.74
2022-09-09T08:34:00.526Z,18.18
2022-09-09T08:36:30.133Z,18.04
2022-09-09T08:38:59.306Z,19.10
2022-09-09T08:42:02.316Z,18.31
2022-09-09T08:44:45.597Z,18.77
2022-09-09T08:47:23.850Z,18.78
2022-09-09T08:50:05.636Z,19.01
2022-09-09T08:52:40.714Z,18.77
2022-09-09T08:55:23.373Z,18.78
2022-09-09T08:57:53.350Z,19.51
2022-09-09T09:00:21.864Z,19.71
2022-09-09T09:03:03.911Z,19.61
2022-09-09T09:05:38.787Z,19.97
2022-09-09T09:08:15.974Z,20.77
2022-09-09T09:10:49.036Z,20.10
2022-09-09T09:13:19.580Z,20.13
2022-09-09T09:15:51.914Z,20.19
2022-09-09T09:18:21.287Z,20.30
2022-09-09T09:21:00.753Z,19.67
2022-09-09T09:23:41.284Z,20.05
2022-09-09T09:26:12.919Z,19.49
2022-09-09T09:28:42.244Z,19.18
2022-09-09T09:31:12.730Z,18.93
2022-09-09T09:33:51.729Z,18.92
2022-09-09T09:36:19.462Z,19.65
2022-09-09T09:41:46.858Z,20.00
2022-09-09T09:44:25.785Z,21.16
2022-09-09T09:46:54.069Z,21.38
2022-09-09T09:49:24.077Z,21.28
2022-09-09T09:51:53.579Z,21.73
2022-09-09T09:54:29.946Z,22.68
2022-09-09T09:56:58.923Z,22.76
2022-09-09T09:59:40.275Z,22.91
2022-09-09T10:02:16.669Z,22.52
2022-09-09T10:04:46.691Z,22.84
2022-09-09T10:07:15.027Z,23.55
2022-09-09T10:09:42.818Z,24.73
2022-09-09T10:12:23.810Z,26.20
2022-09-09T10:15:00.247Z,25.68
2022-09-09T10:17:38.321Z,25.01
2022-09-09T10:20:33.162Z,24.67
2022-09-09T10:23:12.409Z,26.76
2022-09-09T10:26:05.222Z,25.44
2022-09-09T10:28:53.127Z,25.25
2022-09-09T10:31:29.704Z,26.34
2022-09-09T10:34:11.536Z,28.02
2022-09-09T10:36:46.451Z,28.16
2022-09-09T10:39:24.946Z,25.76
2022-09-09T10:42:03.669Z,26.29
2022-09-09T10:44:45.293Z,26.57
2022-09-09T10:47:58.290Z,26.43
2022-09-09T10:51:03.927Z,26.68
2022-09-09T10:53:48.475Z,25.51
2022-09-09T10:56:20.832Z,26.03
2022-09-09T10:58:52.450Z,25.31
2022-09-09T11:01:24.530Z,25.42
2022-09-09T11:03:57.625Z,25.64
2022-09-09T11:06:31.370Z,27.02
2022-09-09T11:09:04.049Z,27.19
2022-09-09T11:11:37.991Z,27.44
2022-09-09T11:14:14.378Z,26.47
2022-09-09T11:16:49.081Z,27.74
2022-09-09T11:19:23.148Z,28.34
2022-09-09T11:21:52.988Z,27.85
2022-09-09T11:24:27.957Z,27.12
2022-09-09T11:27:00.866Z,27.31
2022-09-09T11:29:48.531Z,24.88
2022-09-09T11:32:37.127Z,24.88
2022-09-09T11:35:22.792Z,24.82
2022-09-09T11:38:06.057Z,24.80
2022-09-09T11:40:35.994Z,24.93
2022-09-09T11:43:06.905Z,24.91
2022-09-09T11:45:37.015Z,24.90
2022-09-09T11:48:06.918Z,26.43
2022-09-09T11:50:37.490Z,25.04
2022-09-09T11:53:21.135Z,25.08
2022-09-09T11:55:50.801Z,25.73
2022-09-09T11:58:21.404Z,24.98
2022-09-09T12:00:51.094Z,24.68
2022-09-09T12:03:44.070Z,24.95
2022-09-09T12:06:15.699Z,24.95
2022-09-09T12:08:45.876Z,25.07
2022-09-09T12:11:26.733Z,25.40
2022-09-09T12:13:56.452Z,26.19
2022-09-09T12:16:35.514Z,24.78
2022-09-09T12:19:09.344Z,25.93
2022-09-09T12:21:46.845Z,25.64
2022-09-09T12:24:22.322Z,24.65
2022-09-09T12:27:01.201Z,24.08
2022-09-09T12:29:39.214Z,24.42
2022-09-09T12:32:12.448Z,23.96
2022-09-09T12:34:42.562Z,23.87
2022-09-09T12:37:20.446Z,25.08
2022-09-09T12:39:54.022Z,24.00
2022-09-09T12:42:24.499Z,23.02
2022-09-09T12:44:59.839Z,21.48
2022-09-09T12:47:37.095Z,21.85
2022-09-09T12:50:05.509Z,21.88
2022-09-09T12:52:35.258Z,21.73
2022-09-09T12:55:06.157Z,22.14
2022-09-09T12:57:38.241Z,22.27
2022-09-09T13:00:11.034Z,22.42
2022-09-09T13:02:47.901Z,24.00
2022-09-09T13:05:22.179Z,25.38
2022-09-09T13:07:50.063Z,25.41
2022-09-09T13:10:36.754Z,23.26
2022-09-09T13:13:17.372Z,22.47
2022-09-09T13:15:53.108Z,22.39
2022-09-09T13:18:24.680Z,21.65
2022-09-09T13:20:53.584Z,21.71
2022-09-09T13:23:22.626Z,21.83
2022-09-09T13:25:58.315Z,21.83
2022-09-09T13:28:34.141Z,21.88
2022-09-09T13:31:04.312Z,21.96
2022-09-09T13:33:35.062Z,21.50
2022-09-09T13:36:06.065Z,21.35
2022-09-09T13:38:36.846Z,21.57
2022-09-09T13:41:06.883Z,21.50
2022-09-09T13:43:39.510Z,20.75
2022-09-09T13:46:25.424Z,21.26
2022-09-09T13:48:56.946Z,20.74
2022-09-09T13:51:34.371Z,20.60
2022-09-09T13:54:02.217Z,20.90
2022-09-09T13:56:30.300Z,20.94
2022-09-09T13:58:59.550Z,20.53
2022-09-09T14:01:29.719Z,20.91
2022-09-09T14:03:57.677Z,21.00
2022-09-09T14:06:26.044Z,20.92
2022-09-09T14:08:55.481Z,20.58
2022-09-09T14:11:23.825Z,20.70
2022-09-09T14:13:51.923Z,21.05
2022-09-09T14:16:22.690Z,20.91
2022-09-09T14:18:50.553Z,20.80
2022-09-09T14:21:18.292Z,20.54
2022-09-09T14:23:46.033Z,20.45
2022-09-09T14:26:14.261Z,20.60
2022-09-09T14:28:54.792Z,20.86
2022-09-09T14:31:25.722Z,20.72
2022-09-09T14:33:53.625Z,20.60
2022-09-09T14:36:21.968Z,20.74
2022-09-09T14:38:49.842Z,20.65
2022-09-09T14:41:20.699Z,20.45
2022-09-09T14:43:48.678Z,20.14
2022-09-09T14:46:18.117Z,20.32
2022-09-09T14:48:49.572Z,20.74
2022-09-09T14:51:20.487Z,20.94
2022-09-09T14:53:48.695Z,20.79
2022-09-09T14:56:18.099Z,21.08
2022-09-09T14:58:45.900Z,20.69
2022-09-09T15:01:16.028Z,20.62
2022-09-09T15:03:45.434Z,20.63
2022-09-09T15:06:16.352Z,20.62
2022-09-09T15:08:46.610Z,20.57
2022-09-09T15:11:15.935Z,20.63
2022-09-09T15:13:45.088Z,20.71
2022-09-09T15:16:15.607Z,20.54
2022-09-09T15:18:45.840Z,20.68
2022-09-09T15:21:16.908Z,20.46
2022-09-09T15:23:45.412Z,20.55
2022-09-09T15:26:15.068Z,20.84
2022-09-09T15:28:44.668Z,21.12
2022-09-09T15:31:19.672Z,21.25
2022-09-09T15:33:49.968Z,21.35
2022-09-09T15:36:24.786Z,21.44
2022-09-09T15:38:53.408Z,21.64
2022-09-09T15:41:22.580Z,21.84
2022-09-09T15:43:52.786Z,21.79
2022-09-09T15:46:33.183Z,22.05
2022-09-09T15:49:06.201Z,21.70
2022-09-09T15:51:42.860Z,21.85
2022-09-09T15:54:13.184Z,21.34
2022-09-09T15:56:41.269Z,21.79
2022-09-09T15:59:09.104Z,21.85
2022-09-09T16:01:37.387Z,21.87
2022-09-09T16:04:05.258Z,21.35
2022-09-09T16:06:34.331Z,21.52
2022-09-09T16:09:06.832Z,21.81
2022-09-09T16:11:37.129Z,21.74
2022-09-09T16:14:06.361Z,21.91
2022-09-09T16:16:36.183Z,22.14
2022-09-09T16:19:07.563Z,21.64
2022-09-09T16:21:38.468Z,21.69
2022-09-09T16:24:11.182Z,21.43
2022-09-09T16:26:41.975Z,21.50
2022-09-09T16:29:10.395Z,21.72
2022-09-09T16:31:38.820Z,21.62
2022-09-09T16:34:06.598Z,21.72
2022-09-09T16:36:36.863Z,21.46
2022-09-09T16:39:08.291Z,21.68
2022-09-09T16:41:36.190Z,21.76
2022-09-09T16:44:05.789Z,21.44
2022-09-09T16:46:36.404Z,21.36
2022-09-09T16:49:07.289Z,21.23
2022-09-09T16:51:36.912Z,21.27
2022-09-09T16:54:08.837Z,21.32
2022-09-09T16:56:38.964Z,21.38
2022-09-09T16:59:08.813Z,21.54
2022-09-09T17:01:39.041Z,21.55
2022-09-09T17:04:09.372Z,21.42
2022-09-09T17:06:37.788Z,21.28
2022-09-09T17:09:09.179Z,21.51
2022-09-09T17:11:37.732Z,21.32
2022-09-09T17:14:06.647Z,21.11
2022-09-09T17:16:36.124Z,20.82
2022-09-09T17:19:05.791Z,21.30
2022-09-09T17:21:34.529Z,21.12
2022-09-09T17:24:02.787Z,20.66
2022-09-09T17:26:34.069Z,20.54
2022-09-09T17:29:02.926Z,20.17
2022-09-09T17:31:33.523Z,19.87
2022-09-09T17:34:02.490Z,19.66
2022-09-09T17:36:32.402Z,20.05
2022-09-09T17:39:01.080Z,19.73
2022-09-09T17:41:32.231Z,19.52
2022-09-09T17:44:00.748Z,19.49
2022-09-09T17:46:30.823Z,19.30
2022-09-09T17:49:01.285Z,19.55
2022-09-09T17:51:30.647Z,19.26
2022-09-09T17:54:00.788Z,19.29
2022-09-09T17:56:31.588Z,19.28
2022-09-09T17:59:01.694Z,19.18
2022-09-09T18:01:31.899Z,18.81
2022-09-09T18:04:02.166Z,19.21
2022-09-09T18:06:33.837Z,18.91
2022-09-09T18:09:03.721Z,19.26
2022-09-09T18:11:34.919Z,19.40
2022-09-09T18:14:04.734Z,19.25
2022-09-09T18:16:36.175Z,19.70
2022-09-09T18:19:05.484Z,19.94
2022-09-09T18:21:34.728Z,19.50
2022-09-09T18:24:04.276Z,19.24
2022-09-09T18:26:33.679Z,19.34
2022-09-09T18:29:04.283Z,19.03
2022-09-09T18:31:34.330Z,19.26
2022-09-09T18:34:03.918Z,19.08
2022-09-09T18:36:34.787Z,19.59
2022-09-09T18:39:04.008Z,19.18
2022-09-09T18:41:33.814Z,19.10
2022-09-09T18:44:03.545Z,19.05
2022-09-09T18:46:34.797Z,19.16
2022-09-09T18:49:03.620Z,19.19
2022-09-09T18:51:33.556Z,18.64
2022-09-09T18:54:03.071Z,18.89
2022-09-09T18:56:32.200Z,19.13
2022-09-09T18:59:02.561Z,19.18
2022-09-09T19:01:31.598Z,19.37
2022-09-09T19:04:02.069Z,19.16
2022-09-09T19:06:32.720Z,19.22
2022-09-09T19:09:03.726Z,18.75
2022-09-09T19:11:33.256Z,19.02
2022-09-09T19:14:03.121Z,18.56
2022-09-09T19:16:32.581Z,18.43
2022-09-09T19:19:03.095Z,18.54
2022-09-09T19:21:33.492Z,18.89
2022-09-09T19:24:04.139Z,19.18
2022-09-09T19:26:40.513Z,19.15
2022-09-09T19:29:10.158Z,19.36
2022-09-09T19:31:38.829Z,19.30
2022-09-09T19:34:09.688Z,19.26
2022-09-09T19:36:37.523Z,19.31
2022-09-09T19:39:06.650Z,19.22
2022-09-09T19:41:34.381Z,18.90
2022-09-09T19:44:06.111Z,19.04
2022-09-09T19:46:35.778Z,18.62
2022-09-09T19:49:04.268Z,18.89
2022-09-09T19:51:36.411Z,18.81
2022-09-09T19:54:08.208Z,18.70
2022-09-09T19:56:37.910Z,18.40
2022-09-09T19:59:06.462Z,17.96
2022-09-09T20:01:40.070Z,17.87
2022-09-09T20:04:09.010Z,18.04
2022-09-09T20:06:39.875Z,18.02
2022-09-09T20:09:11.491Z,18.12
2022-09-09T20:11:39.854Z,17.73
2022-09-09T20:14:08.374Z,17.84
2022-09-09T20:16:36.741Z,17.62
2022-09-09T20:19:06.432Z,18.03
2022-09-09T20:21:36.618Z,17.90
2022-09-09T20:24:07.695Z,17.80
2022-09-09T20:26:37.590Z,17.70
2022-09-09T20:29:07.642Z,17.58
2022-09-09T20:31:40.052Z,17.59
2022-09-09T20:34:09.971Z,17.54
2022-09-09T20:36:38.779Z,17.92
2022-09-09T20:39:10.211Z,18.05
2022-09-09T20:41:39.679Z,18.20
2022-09-09T20:44:09.383Z,18.28
2022-09-09T20:46:39.533Z,17.98
2022-09-09T20:49:08.896Z,17.33
2022-09-09T20:51:37.423Z,17.67
2022-09-09T20:54:08.631Z,17.67
2022-09-09T20:56:39.361Z,18.09
2022-09-09T20:59:10.260Z,17.47
2022-09-09T21:01:38.844Z,17.41
2022-09-09T21:04:06.729Z,17.83
2022-09-09T21:06:34.720Z,17.81
2022-09-09T21:09:02.691Z,17.68
2022-09-09T21:11:31.827Z,17.80
2022-09-09T21:13:59.639Z,17.89
2022-09-09T21:16:27.996Z,17.42
2022-09-09T21:18:55.832Z,17.42
2022-09-09T21:21:23.864Z,17.71
2022-09-09T21:23:55.716Z,17.70
2022-09-09T21:26:23.919Z,17.58
2022-09-09T21:28:53.541Z,17.62
2022-09-09T21:31:26.967Z,17.67
2022-09-09T21:33:55.757Z,17.59
2022-09-09T21:36:23.490Z,17.51
2022-09-09T21:38:51.306Z,17.43
2022-09-09T21:41:19.305Z,17.70
2022-09-09T21:43:47.959Z,17.52
2022-09-09T21:46:18.064Z,17.46
2022-09-09T21:48:46.253Z,17.40
2022-09-09T21:51:16.459Z,17.51
2022-09-09T21:53:45.068Z,17.46
2022-09-09T21:56:15.736Z,17.32
2022-09-09T21:58:43.621Z,17.15
2022-09-09T22:01:12.809Z,17.34
2022-09-09T22:03:42.545Z,17.60
2022-09-09T22:06:12.609Z,17.73
2022-09-09T22:08:40.378Z,17.88
2022-09-09T22:11:09.362Z,17.68
2022-09-09T22:13:38.317Z,16.96
2022-09-09T22:16:08.134Z,17.33
2022-09-09T22:18:36.429Z,17.00
2022-09-09T22:21:08.581Z,17.18
2022-09-09T22:23:36.449Z,17.16
2022-09-09T22:26:04.542Z,16.97
2022-09-09T22:28:32.675Z,16.87
2022-09-09T22:31:00.909Z,16.75
2022-09-09T22:33:29.229Z,16.73
2022-09-09T22:35:57.201Z,16.90
2022-09-09T22:38:26.955Z,16.98
2022-09-09T22:40:54.798Z,16.90
2022-09-09T22:43:23.853Z,16.93
2022-09-09T22:45:51.855Z,16.79
2022-09-09T22:48:19.941Z,17.05
2022-09-09T22:50:48.329Z,17.20
2022-09-09T22:53:18.650Z,16.91
2022-09-09T22:55:59.330Z,17.26
2022-09-09T22:58:27.892Z,17.38
2022-09-09T23:00:58.665Z,17.11
2022-09-09T23:03:28.414Z,16.97
2022-09-09T23:05:57.993Z,16.75
2022-09-09T23:08:27.563Z,16.73
2022-09-09T23:10:56.613Z,17.00
2022-09-09T23:13:25.435Z,17.02
2022-09-09T23:15:55.202Z,16.85
2022-09-09T23:18:24.149Z,16.93
2022-09-09T23:21:00.610Z,16.81
2022-09-09T23:23:28.865Z,16.95
2022-09-09T23:25:57.939Z,17.01
2022-09-09T23:28:26.781Z,17.16
2022-09-09T23:30:54.578Z,16.99
2022-09-09T23:33:22.648Z,17.09
2022-09-09T23:35:50.751Z,17.04
2022-09-09T23:38:18.450Z,17.12
2022-09-09T23:40:47.145Z,16.90
2022-09-09T23:43:16.243Z,16.92
2022-09-09T23:45:43.951Z,16.83
2022-09-09T23:48:11.681Z,16.70
2022-09-09T23:50:39.376Z,16.81
2022-09-09T23:53:08.400Z,16.59
2022-09-09T23:55:36.612Z,16.88
2022-09-09T23:58:04.648Z,16.46
